sensor_id;sensor_type;location;lat;lon;timestamp;pressure;altitude;pressure_sealevel;temperature;humidity
28428;BME280;15662;49.128;8.520;2023-06-22T00:01:28;100336.66;;;27.83;50.19
28428;BME280;15662;49.128;8.520;2023-06-22T00:03:57;100341.50;;;27.89;49.92
28428;BME280;15662;49.128;8.520;2023-06-22T00:06:27;100353.72;;;27.85;50.08
28428;BME280;15662;49.128;8.520;2023-06-22T00:08:55;100346.16;;;27.79;49.99
28428;BME280;15662;49.128;8.520;2023-06-22T00:11:26;100352.59;;;27.77;50.07
28428;BME280;15662;49.128;8.520;2023-06-22T00:13:59;100359.03;;;27.76;49.98
28428;BME280;15662;49.128;8.520;2023-06-22T00:16:29;100363.94;;;27.73;50.20
28428;BME280;15662;49.128;8.520;2023-06-22T00:19:05;100359.81;;;27.59;50.27
28428;BME280;15662;49.128;8.520;2023-06-22T00:21:39;100371.13;;;27.64;50.42
28428;BME280;15662;49.128;8.520;2023-06-22T00:24:08;100378.03;;;27.59;50.38
28428;BME280;15662;49.128;8.520;2023-06-22T00:26:37;100405.06;;;27.70;50.72
28428;BME280;15662;49.128;8.520;2023-06-22T00:29:09;100427.72;;;27.61;50.54
28428;BME280;15662;49.128;8.520;2023-06-22T00:31:38;100496.50;;;27.63;50.85
28428;BME280;15662;49.128;8.520;2023-06-22T00:34:06;100572.03;;;27.51;51.34
28428;BME280;15662;49.128;8.520;2023-06-22T00:36:36;100647.69;;;27.47;51.54
28428;BME280;15662;49.128;8.520;2023-06-22T00:39:04;100683.66;;;27.41;51.52
28428;BME280;15662;49.128;8.520;2023-06-22T00:41:34;100673.59;;;27.32;52.03
28428;BME280;15662;49.128;8.520;2023-06-22T00:44:02;100646.69;;;27.29;52.08
28428;BME280;15662;49.128;8.520;2023-06-22T00:46:31;100494.28;;;27.19;54.36
28428;BME280;15662;49.128;8.520;2023-06-22T00:49:02;100313.72;;;26.91;57.27
28428;BME280;15662;49.128;8.520;2023-06-22T00:51:35;100345.66;;;26.51;58.41
28428;BME280;15662;49.128;8.520;2023-06-22T00:54:06;100414.50;;;26.20;59.41
28428;BME280;15662;49.128;8.520;2023-06-22T00:56:35;100443.56;;;25.89;60.44
28428;BME280;15662;49.128;8.520;2023-06-22T00:59:05;100477.75;;;25.92;60.91
28428;BME280;15662;49.128;8.520;2023-06-22T01:01:35;100438.47;;;25.75;61.28
28428;BME280;15662;49.128;8.520;2023-06-22T01:04:07;100437.47;;;25.76;61.71
28428;BME280;15662;49.128;8.520;2023-06-22T01:07:02;100427.75;;;25.73;61.53
28428;BME280;15662;49.128;8.520;2023-06-22T01:10:09;100436.03;;;25.72;61.85
28428;BME280;15662;49.128;8.520;2023-06-22T01:13:11;100454.19;;;25.71;62.20
28428;BME280;15662;49.128;8.520;2023-06-22T01:15:53;100455.28;;;25.69;62.27
28428;BME280;15662;49.128;8.520;2023-06-22T01:18:27;100425.63;;;25.56;62.53
28428;BME280;15662;49.128;8.520;2023-06-22T01:20:57;100435.13;;;25.62;62.75
28428;BME280;15662;49.128;8.520;2023-06-22T01:26:54;100411.09;;;25.57;62.32
28428;BME280;15662;49.128;8.520;2023-06-22T01:29:25;100422.66;;;25.59;62.67
28428;BME280;15662;49.128;8.520;2023-06-22T01:31:56;100431.66;;;25.60;62.84
28428;BME280;15662;49.128;8.520;2023-06-22T01:34:26;100408.84;;;25.41;62.92
28428;BME280;15662;49.128;8.520;2023-06-22T01:36:57;100426.72;;;25.44;63.11
28428;BME280;15662;49.128;8.520;2023-06-22T01:39:30;100422.56;;;25.40;63.19
28428;BME280;15662;49.128;8.520;2023-06-22T01:42:00;100428.84;;;25.40;63.47
28428;BME280;15662;49.128;8.520;2023-06-22T01:44:30;100428.38;;;25.35;63.67
28428;BME280;15662;49.128;8.520;2023-06-22T01:46:59;100430.78;;;25.29;63.91
28428;BME280;15662;49.128;8.520;2023-06-22T01:49:28;100416.38;;;25.17;64.02
28428;BME280;15662;49.128;8.520;2023-06-22T01:51:57;100422.97;;;25.14;64.39
28428;BME280;15662;49.128;8.520;2023-06-22T01:54:28;100433.66;;;25.16;64.38
28428;BME280;15662;49.128;8.520;2023-06-22T01:56:57;100430.09;;;25.15;64.36
28428;BME280;15662;49.128;8.520;2023-06-22T01:59:34;100446.94;;;24.98;64.58
28428;BME280;15662;49.128;8.520;2023-06-22T02:02:08;100443.06;;;25.12;64.50
28428;BME280;15662;49.128;8.520;2023-06-22T02:04:51;100411.78;;;25.08;64.11
28428;BME280;15662;49.128;8.520;2023-06-22T02:07:23;100431.41;;;25.21;64.65
28428;BME280;15662;49.128;8.520;2023-06-22T02:09:52;100428.84;;;25.19;64.59
28428;BME280;15662;49.128;8.520;2023-06-22T02:12:25;100434.72;;;25.25;64.79
28428;BME280;15662;49.128;8.520;2023-06-22T02:14:55;100423.28;;;25.21;65.09
28428;BME280;15662;49.128;8.520;2023-06-22T02:17:26;100438.16;;;25.27;65.04
28428;BME280;15662;49.128;8.520;2023-06-22T02:19:54;100426.75;;;25.23;65.42
28428;BME280;15662;49.128;8.520;2023-06-22T02:22:22;100426.75;;;25.23;65.25
28428;BME280;15662;49.128;8.520;2023-06-22T02:24:51;100426.44;;;25.26;65.32
28428;BME280;15662;49.128;8.520;2023-06-22T02:27:21;100412.25;;;25.13;65.64
28428;BME280;15662;49.128;8.520;2023-06-22T02:29:49;100422.41;;;25.20;65.71
28428;BME280;15662;49.128;8.520;2023-06-22T02:32:18;100401.78;;;25.08;65.51
28428;BME280;15662;49.128;8.520;2023-06-22T02:34:47;100418.00;;;25.19;65.99
28428;BME280;15662;49.128;8.520;2023-06-22T02:37:16;100393.25;;;25.13;65.68
28428;BME280;15662;49.128;8.520;2023-06-22T02:39:47;100395.97;;;25.13;65.95
28428;BME280;15662;49.128;8.520;2023-06-22T02:42:15;100385.13;;;25.02;66.10
28428;BME280;15662;49.128;8.520;2023-06-22T02:44:49;100398.97;;;24.99;65.98
28428;BME280;15662;49.128;8.520;2023-06-22T02:47:22;100405.59;;;25.06;66.26
28428;BME280;15662;49.128;8.520;2023-06-22T02:49:50;100385.13;;;25.02;66.38
28428;BME280;15662;49.128;8.520;2023-06-22T02:52:19;100393.78;;;25.07;66.22
28428;BME280;15662;49.128;8.520;2023-06-22T02:54:47;100394.13;;;25.02;66.26
28428;BME280;15662;49.128;8.520;2023-06-22T02:57:16;100401.53;;;25.00;66.50
28428;BME280;15662;49.128;8.520;2023-06-22T02:59:45;100393.81;;;24.95;66.37
28428;BME280;15662;49.128;8.520;2023-06-22T03:02:13;100386.19;;;24.89;66.39
28428;BME280;15662;49.128;8.520;2023-06-22T03:04:43;100380.31;;;24.84;66.42
28428;BME280;15662;49.128;8.520;2023-06-22T03:07:11;100389.63;;;24.91;66.64
28428;BME280;15662;49.128;8.520;2023-06-22T03:09:41;100381.31;;;24.83;66.56
28428;BME280;15662;49.128;8.520;2023-06-22T03:12:11;100385.00;;;24.82;66.85
28428;BME280;15662;49.128;8.520;2023-06-22T03:14:48;100384.41;;;24.79;66.85
28428;BME280;15662;49.128;8.520;2023-06-22T03:17:18;100366.81;;;24.73;66.93
28428;BME280;15662;49.128;8.520;2023-06-22T03:19:46;100383.16;;;24.83;66.94
28428;BME280;15662;49.128;8.520;2023-06-22T03:22:14;100356.22;;;24.70;67.10
28428;BME280;15662;49.128;8.520;2023-06-22T03:24:43;100380.44;;;24.83;66.97
28428;BME280;15662;49.128;8.520;2023-06-22T03:27:11;100366.53;;;24.76;67.20
28428;BME280;15662;49.128;8.520;2023-06-22T03:29:40;100381.41;;;24.82;67.22
28428;BME280;15662;49.128;8.520;2023-06-22T03:32:08;100382.66;;;24.78;67.12
28428;BME280;15662;49.128;8.520;2023-06-22T03:34:37;100386.59;;;24.85;67.34
28428;BME280;15662;49.128;8.520;2023-06-22T03:37:05;100367.28;;;24.78;67.11
28428;BME280;15662;49.128;8.520;2023-06-22T03:39:33;100360.66;;;24.71;67.51
28428;BME280;15662;49.128;8.520;2023-06-22T03:42:02;100389.91;;;24.88;67.40
28428;BME280;15662;49.128;8.520;2023-06-22T03:44:31;100381.78;;;24.88;67.47
28428;BME280;15662;49.128;8.520;2023-06-22T03:46:59;100390.88;;;24.87;67.32
28428;BME280;15662;49.128;8.520;2023-06-22T03:49:27;100380.91;;;24.88;67.50
28428;BME280;15662;49.128;8.520;2023-06-22T03:51:56;100381.16;;;24.85;67.54
28428;BME280;15662;49.128;8.520;2023-06-22T03:54:26;100380.31;;;24.84;67.38
28428;BME280;15662;49.128;8.520;2023-06-22T03:56:57;100372.31;;;24.83;67.46
28428;BME280;15662;49.128;8.520;2023-06-22T03:59:26;100379.19;;;24.87;67.76
28428;BME280;15662;49.128;8.520;2023-06-22T04:01:54;100356.56;;;24.77;67.94
28428;BME280;15662;49.128;8.520;2023-06-22T04:04:22;100378.22;;;24.88;67.90
28428;BME280;15662;49.128;8.520;2023-06-22T04:06:51;100365.50;;;24.88;67.95
28428;BME280;15662;49.128;8.520;2023-06-22T04:09:19;100368.94;;;24.90;67.86
28428;BME280;15662;49.128;8.520;2023-06-22T04:11:49;100352.59;;;24.81;68.05
28428;BME280;15662;49.128;8.520;2023-06-22T04:14:18;100343.00;;;24.77;68.06
28428;BME280;15662;49.128;8.520;2023-06-22T04:16:47;100334.88;;;24.77;67.96
28428;BME280;15662;49.128;8.520;2023-06-22T04:19:15;100341.34;;;24.85;68.16
28428;BME280;15662;49.128;8.520;2023-06-22T04:21:45;100357.38;;;24.88;68.33
28428;BME280;15662;49.128;8.520;2023-06-22T04:24:16;100351.03;;;24.78;68.17
28428;BME280;15662;49.128;8.520;2023-06-22T04:26:44;100355.31;;;24.81;68.37
28428;BME280;15662;49.128;8.520;2023-06-22T04:29:13;100353.59;;;24.80;68.35
28428;BME280;15662;49.128;8.520;2023-06-22T04:31:43;100334.88;;;24.77;68.61
28428;BME280;15662;49.128;8.520;2023-06-22T04:34:11;100343.59;;;24.80;68.73
28428;BME280;15662;49.128;8.520;2023-06-22T04:36:41;100323.56;;;24.71;68.67
28428;BME280;15662;49.128;8.520;2023-06-22T04:39:12;100344.47;;;24.81;68.55
28428;BME280;15662;49.128;8.520;2023-06-22T04:41:41;100353.75;;;24.78;68.96
28428;BME280;15662;49.128;8.520;2023-06-22T04:44:13;100355.06;;;24.84;68.64
28428;BME280;15662;49.128;8.520;2023-06-22T04:46:43;100332.84;;;24.69;68.94
28428;BME280;15662;49.128;8.520;2023-06-22T04:49:15;100335.88;;;24.76;68.83
28428;BME280;15662;49.128;8.520;2023-06-22T04:51:44;100337.06;;;24.83;69.19
28428;BME280;15662;49.128;8.520;2023-06-22T04:54:12;100316.28;;;24.72;68.90
28428;BME280;15662;49.128;8.520;2023-06-22T04:56:42;100313.31;;;24.75;69.03
28428;BME280;15662;49.128;8.520;2023-06-22T04:59:10;100319.69;;;24.85;69.02
28428;BME280;15662;49.128;8.520;2023-06-22T05:01:41;100332.97;;;24.88;69.21
28428;BME280;15662;49.128;8.520;2023-06-22T05:04:11;100324.56;;;24.91;69.46
28428;BME280;15662;49.128;8.520;2023-06-22T05:06:40;100333.69;;;24.90;69.27
28428;BME280;15662;49.128;8.520;2023-06-22T05:09:08;100324.84;;;24.88;69.49
28428;BME280;15662;49.128;8.520;2023-06-22T05:11:37;100325.31;;;24.93;69.35
28428;BME280;15662;49.128;8.520;2023-06-22T05:14:06;100304.88;;;24.89;69.26
28428;BME280;15662;49.128;8.520;2023-06-22T05:16:36;100310.00;;;24.92;69.51
28428;BME280;15662;49.128;8.520;2023-06-22T05:19:05;100317.28;;;24.92;70.03
28428;BME280;15662;49.128;8.520;2023-06-22T05:21:34;100322.75;;;25.02;69.79
28428;BME280;15662;49.128;8.520;2023-06-22T05:24:03;100322.38;;;25.06;69.91
28428;BME280;15662;49.128;8.520;2023-06-22T05:26:33;100306.63;;;25.00;69.88
28428;BME280;15662;49.128;8.520;2023-06-22T05:29:03;100305.53;;;25.03;70.01
28428;BME280;15662;49.128;8.520;2023-06-22T05:31:32;100305.38;;;25.04;70.26
28428;BME280;15662;49.128;8.520;2023-06-22T05:34:01;100298.50;;;25.00;70.03
28428;BME280;15662;49.128;8.520;2023-06-22T05:36:30;100327.88;;;25.16;70.35
28428;BME280;15662;49.128;8.520;2023-06-22T05:38:59;100318.28;;;25.12;69.96
28428;BME280;15662;49.128;8.520;2023-06-22T05:41:39;100319.63;;;25.17;70.53
28428;BME280;15662;49.128;8.520;2023-06-22T05:44:09;100304.31;;;25.16;70.51
28428;BME280;15662;49.128;8.520;2023-06-22T05:46:42;100323.72;;;25.33;70.18
28428;BME280;15662;49.128;8.520;2023-06-22T05:49:15;100308.84;;;25.27;70.55
28428;BME280;15662;49.128;8.520;2023-06-22T05:51:44;100303.41;;;25.27;70.51
28428;BME280;15662;49.128;8.520;2023-06-22T05:54:14;100305.44;;;25.35;70.67
28428;BME280;15662;49.128;8.520;2023-06-22T05:56:47;100308.19;;;25.44;71.15
28428;BME280;15662;49.128;8.520;2023-06-22T05:59:15;100318.81;;;25.57;71.11
28428;BME280;15662;49.128;8.520;2023-06-22T06:01:45;100323.69;;;25.63;71.18
28428;BME280;15662;49.128;8.520;2023-06-22T06:04:18;100312.09;;;25.61;71.40
28428;BME280;15662;49.128;8.520;2023-06-22T06:06:48;100317.69;;;25.69;71.54
28428;BME280;15662;49.128;8.520;2023-06-22T06:09:17;100327.09;;;25.86;71.72
28428;BME280;15662;49.128;8.520;2023-06-22T06:11:45;100319.09;;;25.94;71.70
28428;BME280;15662;49.128;8.520;2023-06-22T06:14:15;100310.09;;;26.04;71.19
28428;BME280;15662;49.128;8.520;2023-06-22T06:16:45;100307.81;;;26.09;71.47
28428;BME280;15662;49.128;8.520;2023-06-22T06:19:14;100312.56;;;26.16;71.91
28428;BME280;15662;49.128;8.520;2023-06-22T06:21:44;100303.56;;;26.16;72.14
28428;BME280;15662;49.128;8.520;2023-06-22T06:24:13;100317.44;;;26.32;72.17
28428;BME280;15662;49.128;8.520;2023-06-22T06:26:41;100305.28;;;26.36;72.82
28428;BME280;15662;49.128;8.520;2023-06-22T06:29:11;100314.88;;;26.50;73.02
28428;BME280;15662;49.128;8.520;2023-06-22T06:31:39;100298.16;;;26.55;73.40
28428;BME280;15662;49.128;8.520;2023-06-22T06:34:09;100306.72;;;26.69;73.91
28428;BME280;15662;49.128;8.520;2023-06-22T06:36:37;100294.56;;;26.73;73.68
28428;BME280;15662;49.128;8.520;2023-06-22T06:39:05;100308.72;;;26.87;73.83
28428;BME280;15662;49.128;8.520;2023-06-22T06:41:35;100296.81;;;26.97;74.22
28428;BME280;15662;49.128;8.520;2023-06-22T06:44:10;100302.66;;;27.02;74.18
28428;BME280;15662;49.128;8.520;2023-06-22T06:46:39;100303.94;;;27.18;74.38
28428;BME280;15662;49.128;8.520;2023-06-22T06:49:10;100296.75;;;27.26;74.43
28428;BME280;15662;49.128;8.520;2023-06-22T06:51:41;100281.91;;;27.11;73.61
28428;BME280;15662;49.128;8.520;2023-06-22T06:54:10;100282.41;;;27.34;74.51
28428;BME280;15662;49.128;8.520;2023-06-22T06:56:39;100279.34;;;27.47;74.39
28428;BME280;15662;49.128;8.520;2023-06-22T06:59:07;100259.25;;;27.48;74.20
28428;BME280;15662;49.128;8.520;2023-06-22T07:01:36;100276.34;;;27.68;74.57
28428;BME280;15662;49.128;8.520;2023-06-22T07:04:05;100284.91;;;27.83;74.46
28428;BME280;15662;49.128;8.520;2023-06-22T07:06:34;100267.69;;;27.82;74.21
28428;BME280;15662;49.128;8.520;2023-06-22T07:09:02;100277.22;;;27.96;73.71
28428;BME280;15662;49.128;8.520;2023-06-22T07:11:32;100275.63;;;28.03;73.51
28428;BME280;15662;49.128;8.520;2023-06-22T07:14:02;100272.41;;;28.08;73.30
28428;BME280;15662;49.128;8.520;2023-06-22T07:16:30;100279.50;;;28.18;73.64
28428;BME280;15662;49.128;8.520;2023-06-22T07:18:59;100259.81;;;28.24;73.42
28428;BME280;15662;49.128;8.520;2023-06-22T07:21:28;100255.28;;;28.33;73.69
28428;BME280;15662;49.128;8.520;2023-06-22T07:23:57;100253.66;;;28.40;73.75
28428;BME280;15662;49.128;8.520;2023-06-22T07:26:25;100255.28;;;28.51;73.70
28428;BME280;15662;49.128;8.520;2023-06-22T07:28:53;100237.53;;;28.47;72.90
28428;BME280;15662;49.128;8.520;2023-06-22T07:31:25;100261.03;;;28.66;72.66
28428;BME280;15662;49.128;8.520;2023-06-22T07:33:53;100252.34;;;28.62;72.78
28428;BME280;15662;49.128;8.520;2023-06-22T07:36:22;100235.63;;;28.65;72.64
28428;BME280;15662;49.128;8.520;2023-06-22T07:38:50;100239.66;;;28.79;72.29
28428;BME280;15662;49.128;8.520;2023-06-22T07:41:18;100240.56;;;28.88;71.81
28428;BME280;15662;49.128;8.520;2023-06-22T07:43:47;100221.84;;;28.93;71.40
28428;BME280;15662;49.128;8.520;2023-06-22T07:46:16;100210.09;;;28.92;70.05
28428;BME280;15662;49.128;8.520;2023-06-22T07:48:46;100249.94;;;29.11;69.16
28428;BME280;15662;49.128;8.520;2023-06-22T07:51:16;100255.13;;;28.96;69.00
28428;BME280;15662;49.128;8.520;2023-06-22T07:53:45;100250.59;;;29.05;69.67
28428;BME280;15662;49.128;8.520;2023-06-22T07:56:15;100257.84;;;29.22;68.79
28428;BME280;15662;49.128;8.520;2023-06-22T07:58:50;100260.59;;;29.30;68.21
28428;BME280;15662;49.128;8.520;2023-06-22T08:01:20;100244.75;;;29.34;67.46
28428;BME280;15662;49.128;8.520;2023-06-22T08:03:54;100236.25;;;29.37;66.10
28428;BME280;15662;49.128;8.520;2023-06-22T08:06:24;100248.59;;;29.49;65.31
28428;BME280;15662;49.128;8.520;2023-06-22T08:08:52;100222.47;;;29.47;64.69
28428;BME280;15662;49.128;8.520;2023-06-22T08:11:22;100246.28;;;29.63;64.19
28428;BME280;15662;49.128;8.520;2023-06-22T08:13:53;100251.94;;;29.69;63.62
28428;BME280;15662;49.128;8.520;2023-06-22T08:16:24;100260.16;;;29.77;63.19
28428;BME280;15662;49.128;8.520;2023-06-22T08:18:55;100253.13;;;29.67;63.36
28428;BME280;15662;49.128;8.520;2023-06-22T08:21:25;100252.81;;;29.78;63.37
28428;BME280;15662;49.128;8.520;2023-06-22T08:23:56;100255.22;;;29.89;61.81
28428;BME280;15662;49.128;8.520;2023-06-22T08:26:25;100276.94;;;29.99;60.51
28428;BME280;15662;49.128;8.520;2023-06-22T08:28:54;100257.50;;;30.02;59.60
28428;BME280;15662;49.128;8.520;2023-06-22T08:31:23;100253.75;;;30.11;59.06
28428;BME280;15662;49.128;8.520;2023-06-22T08:33:52;100275.66;;;30.19;58.71
28428;BME280;15662;49.128;8.520;2023-06-22T08:36:21;100252.06;;;30.18;58.60
28428;BME280;15662;49.128;8.520;2023-06-22T08:38:51;100289.00;;;30.39;58.05
28428;BME280;15662;49.128;8.520;2023-06-22T08:41:21;100282.00;;;30.36;58.05
28428;BME280;15662;49.128;8.520;2023-06-22T08:43:50;100289.34;;;30.52;57.99
28428;BME280;15662;49.128;8.520;2023-06-22T08:46:23;100291.41;;;30.50;57.54
28428;BME280;15662;49.128;8.520;2023-06-22T08:49:00;100294.16;;;30.66;57.36
28428;BME280;15662;49.128;8.520;2023-06-22T08:51:28;100289.91;;;30.72;57.16
28428;BME280;15662;49.128;8.520;2023-06-22T08:53:59;100286.47;;;30.78;56.39
28428;BME280;15662;49.128;8.520;2023-06-22T08:56:27;100269.38;;;30.84;55.91
28428;BME280;15662;49.128;8.520;2023-06-22T08:58:56;100251.22;;;30.91;55.72
28428;BME280;15662;49.128;8.520;2023-06-22T09:01:27;100242.63;;;31.02;55.78
28428;BME280;15662;49.128;8.520;2023-06-22T09:03:55;100221.44;;;31.04;55.82
28428;BME280;15662;49.128;8.520;2023-06-22T09:06:29;100233.34;;;31.28;55.44
28428;BME280;15662;49.128;8.520;2023-06-22T09:09:00;100199.63;;;31.27;55.46
28428;BME280;15662;49.128;8.520;2023-06-22T09:11:30;100209.81;;;31.50;54.55
28428;BME280;15662;49.128;8.520;2023-06-22T09:13:58;100213.00;;;31.62;54.31
28428;BME280;15662;49.128;8.520;2023-06-22T09:16:28;100207.47;;;31.70;54.53
28428;BME280;15662;49.128;8.520;2023-06-22T09:18:56;100216.66;;;31.85;53.47
28428;BME280;15662;49.128;8.520;2023-06-22T09:21:26;100225.00;;;31.92;53.08
28428;BME280;15662;49.128;8.520;2023-06-22T09:23:56;100233.38;;;31.98;52.53
28428;BME280;15662;49.128;8.520;2023-06-22T09:26:24;100217.03;;;32.05;52.24
28428;BME280;15662;49.128;8.520;2023-06-22T09:28:53;100206.25;;;32.03;51.57
28428;BME280;15662;49.128;8.520;2023-06-22T09:31:21;100201.13;;;32.00;51.90
28428;BME280;15662;49.128;8.520;2023-06-22T09:33:54;100207.41;;;32.09;51.63
28428;BME280;15662;49.128;8.520;2023-06-22T09:36:24;100206.25;;;32.03;51.84
28428;BME280;15662;49.128;8.520;2023-06-22T09:38:53;100193.50;;;32.10;51.50
28428;BME280;15662;49.128;8.520;2023-06-22T09:41:29;100207.38;;;32.17;51.09
28428;BME280;15662;49.128;8.520;2023-06-22T09:43:58;100183.59;;;32.09;51.09
28428;BME280;15662;49.128;8.520;2023-06-22T09:46:29;100194.88;;;32.15;50.97
28428;BME280;15662;49.128;8.520;2023-06-22T09:48:58;100188.16;;;32.17;50.48
28428;BME280;15662;49.128;8.520;2023-06-22T09:51:27;100185.34;;;32.25;50.29
28428;BME280;15662;49.128;8.520;2023-06-22T09:53:57;100163.41;;;32.25;50.02
28428;BME280;15662;49.128;8.520;2023-06-22T09:56:26;100148.06;;;32.39;49.62
28428;BME280;15662;49.128;8.520;2023-06-22T09:58:56;100140.59;;;32.48;50.05
28428;BME280;15662;49.128;8.520;2023-06-22T10:01:44;100124.53;;;32.59;49.38
28428;BME280;15662;49.128;8.520;2023-06-22T10:04:13;100148.00;;;32.77;48.91
28428;BME280;15662;49.128;8.520;2023-06-22T10:06:43;100135.78;;;32.79;48.42
28428;BME280;15662;49.128;8.520;2023-06-22T10:09:13;100125.56;;;32.88;48.32
28428;BME280;15662;49.128;8.520;2023-06-22T10:11:42;100118.78;;;32.99;48.08
28428;BME280;15662;49.128;8.520;2023-06-22T10:14:11;100132.78;;;33.04;47.90
28428;BME280;15662;49.128;8.520;2023-06-22T10:16:40;100108.47;;;33.01;47.36
28428;BME280;15662;49.128;8.520;2023-06-22T10:19:10;100126.72;;;33.08;47.27
28428;BME280;15662;49.128;8.520;2023-06-22T10:21:38;100120.84;;;33.11;47.30
28428;BME280;15662;49.128;8.520;2023-06-22T10:24:06;100116.84;;;33.14;47.11
28428;BME280;15662;49.128;8.520;2023-06-22T10:26:35;100124.25;;;33.13;46.84
28428;BME280;15662;49.128;8.520;2023-06-22T10:29:04;100141.09;;;33.25;47.00
28428;BME280;15662;49.128;8.520;2023-06-22T10:31:35;100144.28;;;33.29;47.29
28428;BME280;15662;49.128;8.520;2023-06-22T10:34:04;100139.34;;;33.39;46.95
28428;BME280;15662;49.128;8.520;2023-06-22T10:36:34;100124.38;;;33.42;46.81
28428;BME280;15662;49.128;8.520;2023-06-22T10:39:03;100114.28;;;33.42;46.29
28428;BME280;15662;49.128;8.520;2023-06-22T10:41:31;100137.38;;;33.48;46.34
28428;BME280;15662;49.128;8.520;2023-06-22T10:43:59;100127.22;;;33.48;46.33
28428;BME280;15662;49.128;8.520;2023-06-22T10:46:28;100125.31;;;33.49;46.04
28428;BME280;15662;49.128;8.520;2023-06-22T10:48:58;100127.50;;;33.53;45.78
28428;BME280;15662;49.128;8.520;2023-06-22T10:51:27;100105.81;;;33.44;45.66
28428;BME280;15662;49.128;8.520;2023-06-22T10:53:56;100115.28;;;33.56;45.48
28428;BME280;15662;49.128;8.520;2023-06-22T10:56:24;100108.09;;;33.55;45.13
28428;BME280;15662;49.128;8.520;2023-06-22T10:58:53;100097.25;;;33.53;45.10
28428;BME280;15662;49.128;8.520;2023-06-22T11:01:22;100088.75;;;33.48;44.74
28428;BME280;15662;49.128;8.520;2023-06-22T11:03:53;100102.38;;;33.56;45.16
28428;BME280;15662;49.128;8.520;2023-06-22T11:06:22;100089.44;;;33.50;44.67
28428;BME280;15662;49.128;8.520;2023-06-22T11:08:51;100115.31;;;33.62;44.35
28428;BME280;15662;49.128;8.520;2023-06-22T11:11:32;100115.97;;;33.64;44.65
28428;BME280;15662;49.128;8.520;2023-06-22T11:14:02;100110.41;;;33.58;45.06
28428;BME280;15662;49.128;8.520;2023-06-22T11:16:31;100119.44;;;33.73;44.68
28428;BME280;15662;49.128;8.520;2023-06-22T11:18:59;100125.41;;;33.77;44.13
28428;BME280;15662;49.128;8.520;2023-06-22T11:21:27;100127.84;;;33.86;44.34
28428;BME280;15662;49.128;8.520;2023-06-22T11:23:56;100128.09;;;33.92;43.74
28428;BME280;15662;49.128;8.520;2023-06-22T11:26:25;100109.50;;;33.94;43.89
28428;BME280;15662;49.128;8.520;2023-06-22T11:28:56;100102.66;;;34.04;44.23
28428;BME280;15662;49.128;8.520;2023-06-22T11:31:25;100083.59;;;34.03;43.61
28428;BME280;15662;49.128;8.520;2023-06-22T11:33:55;100088.31;;;34.09;43.63
28428;BME280;15662;49.128;8.520;2023-06-22T11:36:25;100081.56;;;34.11;43.00
28428;BME280;15662;49.128;8.520;2023-06-22T11:38:55;100092.84;;;34.23;43.53
28428;BME280;15662;49.128;8.520;2023-06-22T11:41:23;100092.91;;;34.30;43.05
28428;BME280;15662;49.128;8.520;2023-06-22T11:43:52;100084.22;;;34.26;43.15
28428;BME280;15662;49.128;8.520;2023-06-22T11:46:21;100068.97;;;34.24;43.06
28428;BME280;15662;49.128;8.520;2023-06-22T11:48:50;100094.22;;;34.34;42.67
28428;BME280;15662;49.128;8.520;2023-06-22T11:51:19;100090.81;;;34.32;42.87
28428;BME280;15662;49.128;8.520;2023-06-22T11:53:48;100087.84;;;34.33;42.85
28428;BME280;15662;49.128;8.520;2023-06-22T11:56:18;100082.34;;;34.33;42.76
28428;BME280;15662;49.128;8.520;2023-06-22T11:58:46;100088.50;;;34.35;43.13
28428;BME280;15662;49.128;8.520;2023-06-22T12:01:16;100099.44;;;34.50;42.89
28428;BME280;15662;49.128;8.520;2023-06-22T12:03:48;100088.44;;;34.50;43.12
28428;BME280;15662;49.128;8.520;2023-06-22T12:06:17;100099.06;;;34.60;42.55
28428;BME280;15662;49.128;8.520;2023-06-22T12:08:46;100097.56;;;34.57;42.56
28428;BME280;15662;49.128;8.520;2023-06-22T12:11:14;100097.81;;;34.62;42.79
28428;BME280;15662;49.128;8.520;2023-06-22T12:13:45;100120.31;;;34.73;42.96
28428;BME280;15662;49.128;8.520;2023-06-22T12:16:15;100114.78;;;34.73;42.95
28428;BME280;15662;49.128;8.520;2023-06-22T12:18:46;100112.72;;;34.75;43.19
28428;BME280;15662;49.128;8.520;2023-06-22T12:21:15;100111.91;;;34.87;42.43
28428;BME280;15662;49.128;8.520;2023-06-22T12:23:44;100106.00;;;34.90;41.90
28428;BME280;15662;49.128;8.520;2023-06-22T12:26:15;100084.81;;;34.84;41.76
28428;BME280;15662;49.128;8.520;2023-06-22T12:28:45;100100.28;;;34.92;42.02
28428;BME280;15662;49.128;8.520;2023-06-22T12:31:14;100091.84;;;34.94;42.08
28428;BME280;15662;49.128;8.520;2023-06-22T12:33:42;100089.59;;;35.04;41.86
28428;BME280;15662;49.128;8.520;2023-06-22T12:36:11;100101.69;;;35.09;41.47
28428;BME280;15662;49.128;8.520;2023-06-22T12:38:39;100112.94;;;35.14;41.90
28428;BME280;15662;49.128;8.520;2023-06-22T12:41:07;100115.69;;;35.21;41.80
28428;BME280;15662;49.128;8.520;2023-06-22T12:43:35;100120.19;;;35.29;41.88
28428;BME280;15662;49.128;8.520;2023-06-22T12:46:04;100121.06;;;35.36;41.59
28428;BME280;15662;49.128;8.520;2023-06-22T12:48:33;100130.03;;;35.51;41.50
28428;BME280;15662;49.128;8.520;2023-06-22T12:51:04;100134.31;;;35.60;41.37
28428;BME280;15662;49.128;8.520;2023-06-22T12:53:33;100134.97;;;35.69;41.88
28428;BME280;15662;49.128;8.520;2023-06-22T12:56:01;100112.28;;;35.74;42.15
28428;BME280;15662;49.128;8.520;2023-06-22T12:58:30;100108.25;;;35.76;41.67
28428;BME280;15662;49.128;8.520;2023-06-22T13:00:58;100104.66;;;35.89;41.92
28428;BME280;15662;49.128;8.520;2023-06-22T13:03:26;100103.19;;;35.93;41.59
28428;BME280;15662;49.128;8.520;2023-06-22T13:05:57;100101.75;;;35.97;41.23
28428;BME280;15662;49.128;8.520;2023-06-22T13:08:27;100106.63;;;36.02;41.68